createdAt,value
2018-12-20T00:00:27.917Z,98.68
2018-12-20T00:01:27.903Z,98.92
2018-12-20T00:02:28.020Z,98.59
2018-12-20T00:03:27.798Z,98.78
2018-12-20T00:04:27.765Z,98.68
2018-12-20T00:05:27.779Z,98.59
2018-12-20T00:06:27.835Z,99.11
2018-12-20T00:07:27.804Z,99.16
2018-12-20T00:08:27.821Z,99.01
2018-12-20T00:09:27.683Z,98.82
2018-12-20T00:10:27.683Z,98.73
2018-12-20T00:11:27.848Z,99.68
2018-12-20T00:12:27.799Z,98.92
2018-12-20T00:13:27.748Z,99.39
2018-12-20T00:14:32.405Z,99.63
2018-12-20T00:15:27.650Z,99.68
2018-12-20T00:16:27.690Z,99.44
2018-12-20T00:17:27.781Z,99.39
2018-12-20T00:18:27.761Z,99.58
2018-12-20T00:19:27.684Z,99.63
2018-12-20T00:20:27.544Z,98.87
2018-12-20T00:21:27.602Z,99.68
2018-12-20T00:22:27.886Z,99.68
2018-12-20T00:23:27.745Z,99.39
2018-12-20T00:24:27.564Z,99.39
2018-12-20T00:25:27.573Z,99.44
2018-12-20T00:26:27.460Z,99.63
2018-12-20T00:27:27.698Z,99.35
2018-12-20T00:28:27.504Z,99.39
2018-12-20T00:29:27.466Z,99.63
2018-12-20T00:30:27.398Z,99.3
2018-12-20T00:31:27.618Z,99.54
2018-12-20T00:32:27.414Z,99.35
2018-12-20T00:33:27.618Z,99.39
2018-12-20T00:34:27.450Z,99.49
2018-12-20T00:35:27.412Z,99.26
2018-12-20T00:36:27.370Z,99.3
2018-12-20T00:37:27.428Z,99.3
2018-12-20T00:38:27.139Z,99.99
2018-12-20T00:39:27.276Z,99.49
2018-12-20T00:40:27.131Z,99.58
2018-12-20T00:41:27.439Z,99.39
2018-12-20T00:42:27.275Z,99.54
2018-12-20T00:43:27.225Z,99.49
2018-12-20T00:44:27.301Z,99.49
2018-12-20T00:45:27.284Z,99.58
2018-12-20T00:46:27.353Z,99.49
2018-12-20T00:47:27.189Z,99.3
2018-12-20T00:48:27.289Z,99.49
2018-12-20T00:49:27.159Z,99.96
2018-12-20T00:50:27.186Z,99.99
2018-12-20T00:51:27.138Z,99.96
2018-12-20T00:52:27.251Z,99.96
2018-12-20T00:53:27.490Z,99.99
2018-12-20T00:54:27.351Z,99.87
2018-12-20T00:55:27.060Z,99.77
2018-12-20T00:56:27.136Z,99.87
2018-12-20T00:57:27.114Z,99.96
2018-12-20T00:58:27.016Z,99.87
2018-12-20T00:59:27.202Z,99.99
2018-12-20T01:00:27.101Z,99.87
2018-12-20T01:01:27.115Z,99.96
2018-12-20T01:02:27.048Z,99.96
2018-12-20T01:03:27.161Z,99.77
2018-12-20T01:04:27.167Z,99.87
2018-12-20T01:05:26.927Z,99.87
2018-12-20T01:06:27.030Z,99.77
2018-12-20T01:07:27.149Z,99.58
2018-12-20T01:08:27.097Z,99.99
2018-12-20T01:09:27.012Z,99.99
2018-12-20T01:10:26.877Z,99.87
2018-12-20T01:11:26.870Z,99.96
2018-12-20T01:12:26.954Z,99.58
2018-12-20T01:13:26.837Z,99.87
2018-12-20T01:14:26.948Z,99.99
2018-12-20T01:15:26.878Z,99.87
2018-12-20T01:16:26.918Z,99.87
2018-12-20T01:17:26.799Z,99.68
2018-12-20T01:18:26.767Z,99.58
2018-12-20T01:19:26.876Z,99.87
2018-12-20T01:20:26.747Z,99.68
2018-12-20T01:21:26.705Z,99.87
2018-12-20T01:22:26.818Z,99.99
2018-12-20T01:23:26.779Z,99.68
2018-12-20T01:24:26.798Z,99.77
2018-12-20T01:25:26.693Z,99.58
2018-12-20T01:26:26.728Z,99.77
2018-12-20T01:27:26.723Z,99.77
2018-12-20T01:28:26.642Z,99.77
2018-12-20T01:29:26.735Z,99.87
2018-12-20T01:30:26.842Z,99.87
2018-12-20T01:31:26.679Z,99.96
2018-12-20T01:32:26.564Z,99.68
2018-12-20T01:33:26.481Z,99.77
2018-12-20T01:34:26.660Z,99.77
2018-12-20T01:35:26.784Z,99.87
2018-12-20T01:36:26.569Z,99.87
2018-12-20T01:37:26.762Z,99.99
2018-12-20T01:38:26.574Z,99.68
2018-12-20T01:39:26.647Z,99.96
2018-12-20T01:40:26.899Z,99.87
2018-12-20T01:41:26.428Z,99.77
2018-12-20T01:42:26.638Z,99.99
2018-12-20T01:43:26.680Z,99.49
2018-12-20T01:44:26.579Z,99.68
2018-12-20T01:45:26.750Z,99.58
2018-12-20T01:46:26.464Z,99.96
2018-12-20T01:47:26.476Z,99.99
2018-12-20T01:48:26.428Z,99.99
2018-12-20T01:49:26.320Z,99.96
2018-12-20T01:50:26.422Z,99.99
2018-12-20T01:51:26.454Z,99.96
2018-12-20T01:52:26.662Z,99.99
2018-12-20T01:53:26.275Z,99.58
2018-12-20T01:54:26.396Z,99.96
2018-12-20T01:55:26.399Z,99.99
2018-12-20T01:56:26.377Z,99.77
2018-12-20T01:57:26.301Z,99.99
2018-12-20T01:58:26.330Z,99.99
2018-12-20T01:59:26.389Z,99.96
2018-12-20T02:00:26.188Z,99.96
2018-12-20T02:01:26.193Z,99.99
2018-12-20T02:02:26.202Z,99.99
2018-12-20T02:03:26.141Z,99.99
2018-12-20T02:04:26.349Z,99.99
2018-12-20T02:05:26.170Z,99.99
2018-12-20T02:06:26.208Z,99.99
2018-12-20T02:07:26.198Z,99.96
2018-12-20T02:08:26.098Z,99.96
2018-12-20T02:09:26.257Z,99.96
2018-12-20T02:10:26.233Z,99.99
2018-12-20T02:11:26.204Z,99.99
2018-12-20T02:12:26.395Z,99.77
2018-12-20T02:13:26.106Z,99.77
2018-12-20T02:14:26.094Z,99.77
2018-12-20T02:15:26.090Z,99.96
2018-12-20T02:16:26.007Z,99.99
2018-12-20T02:17:26.194Z,99.99
2018-12-20T02:18:26.041Z,99.99
2018-12-20T02:19:25.975Z,99.96
2018-12-20T02:20:25.993Z,99.96
2018-12-20T02:21:25.980Z,99.99
2018-12-20T02:22:25.863Z,99.99
2018-12-20T02:23:26.123Z,99.99
2018-12-20T02:24:25.941Z,99.99
2018-12-20T02:25:25.894Z,99.77
2018-12-20T02:26:25.935Z,99.77
2018-12-20T02:27:26.241Z,99.99
2018-12-20T02:28:25.946Z,99.77
2018-12-20T02:29:25.771Z,99.58
2018-12-20T02:30:26.029Z,99.58
2018-12-20T02:31:25.997Z,99.87
2018-12-20T02:32:25.994Z,99.77
2018-12-20T02:33:26.014Z,99.96
2018-12-20T02:34:25.759Z,99.77
2018-12-20T02:35:25.865Z,99.58
2018-12-20T02:36:26.167Z,99.87
2018-12-20T02:37:25.803Z,99.77
2018-12-20T02:38:25.852Z,99.68
2018-12-20T02:39:25.740Z,99.87
2018-12-20T02:40:25.643Z,99.58
2018-12-20T02:41:25.702Z,99.58
2018-12-20T02:42:25.609Z,99.58
2018-12-20T02:43:25.579Z,99.68
2018-12-20T02:44:25.602Z,99.77
2018-12-20T02:45:25.660Z,99.77
2018-12-20T02:46:25.623Z,99.77
2018-12-20T02:47:25.524Z,99.77
2018-12-20T02:48:25.937Z,99.58
2018-12-20T02:49:25.683Z,99.87
2018-12-20T02:50:25.642Z,99.77
2018-12-20T02:51:25.532Z,99.87
2018-12-20T02:52:25.734Z,99.96
2018-12-20T02:53:25.775Z,99.87
2018-12-20T02:54:25.671Z,99.96
2018-12-20T02:55:25.517Z,99.87
2018-12-20T02:56:25.406Z,99.58
2018-12-20T02:57:25.430Z,99.96
2018-12-20T02:58:25.842Z,99.96
2018-12-20T02:59:25.575Z,99.77
2018-12-20T03:00:25.452Z,99.99
2018-12-20T03:01:25.555Z,99.39
2018-12-20T03:02:25.453Z,99.39
2018-12-20T03:03:25.488Z,99.96
2018-12-20T03:04:25.487Z,99.96
2018-12-20T03:05:25.801Z,99.87
2018-12-20T03:06:25.335Z,99.99
2018-12-20T03:07:25.250Z,99.96
2018-12-20T03:08:25.553Z,99.96
2018-12-20T03:09:25.463Z,99.58
2018-12-20T03:10:25.546Z,99.96
2018-12-20T03:11:25.480Z,99.96
2018-12-20T03:12:25.224Z,99.99
2018-12-20T03:13:25.386Z,99.87
2018-12-20T03:14:25.195Z,99.96
2018-12-20T03:15:25.315Z,99.96
2018-12-20T03:16:25.333Z,99.77
2018-12-20T03:17:25.138Z,99.87
2018-12-20T03:18:25.223Z,99.68
2018-12-20T03:19:25.245Z,99.58
2018-12-20T03:20:25.194Z,99.58
2018-12-20T03:21:25.076Z,99.68
2018-12-20T03:22:25.051Z,99.58
2018-12-20T03:23:25.249Z,99.68
2018-12-20T03:24:25.113Z,99.99
2018-12-20T03:25:25.172Z,99.58
2018-12-20T03:26:25.307Z,99.77
2018-12-20T03:27:24.988Z,99.77
2018-12-20T03:28:25.382Z,99.77
2018-12-20T03:29:25.087Z,99.58
2018-12-20T03:30:25.159Z,99.58
2018-12-20T03:31:24.927Z,99.58
2018-12-20T03:32:25.685Z,99.87
2018-12-20T03:33:24.905Z,99.68
2018-12-20T03:34:25.120Z,99.87
2018-12-20T03:35:24.864Z,99.96
2018-12-20T03:36:24.857Z,99.96
2018-12-20T03:37:24.939Z,99.99
2018-12-20T03:38:25.012Z,99.87
2018-12-20T03:39:24.958Z,99.96
2018-12-20T03:40:24.798Z,99.96
2018-12-20T03:41:24.804Z,99.96
2018-12-20T03:42:25.123Z,99.68
2018-12-20T03:43:24.823Z,99.87
2018-12-20T03:44:24.991Z,99.87
2018-12-20T03:45:31.659Z,99.99
2018-12-20T03:46:24.979Z,99.96
2018-12-20T03:47:24.943Z,99.2
2018-12-20T03:48:25.262Z,99.39
2018-12-20T03:49:24.753Z,99.39
2018-12-20T03:50:24.728Z,99.3
2018-12-20T03:51:24.771Z,99.49
2018-12-20T03:52:24.835Z,99.49
2018-12-20T03:53:24.920Z,99.39
2018-12-20T03:54:24.635Z,99.3
2018-12-20T03:55:24.707Z,99.44
2018-12-20T03:56:24.580Z,99.49
2018-12-20T03:57:24.766Z,99.39
2018-12-20T03:58:24.596Z,99.68
2018-12-20T03:59:24.542Z,99.63
2018-12-20T04:00:24.681Z,99.49
2018-12-20T04:01:24.716Z,99.01
2018-12-20T04:02:24.717Z,99.58
2018-12-20T04:03:24.500Z,99.3
2018-12-20T04:04:24.698Z,98.73
2018-12-20T04:05:24.628Z,98.73
2018-12-20T04:06:24.670Z,99.35
2018-12-20T04:07:24.542Z,99.01
2018-12-20T04:08:24.647Z,99.06
2018-12-20T04:09:24.756Z,99.11
2018-12-20T04:10:24.919Z,99.2
2018-12-20T04:11:24.873Z,99.39
2018-12-20T04:12:24.369Z,99.26
2018-12-20T04:13:24.523Z,99.3
2018-12-20T04:14:24.337Z,99.44
2018-12-20T04:15:24.629Z,99.58
2018-12-20T04:16:24.318Z,99.3
2018-12-20T04:17:24.546Z,99.39
2018-12-20T04:18:24.390Z,99.39
2018-12-20T04:19:24.658Z,99.68
2018-12-20T04:20:24.472Z,99.49
2018-12-20T04:21:24.241Z,99.39
2018-12-20T04:22:24.235Z,99.58
2018-12-20T04:23:24.217Z,99.49
2018-12-20T04:24:24.405Z,99.39
2018-12-20T04:25:24.186Z,99.58
2018-12-20T04:26:24.184Z,99.11
2018-12-20T04:27:24.161Z,99.63
2018-12-20T04:28:24.219Z,98.92
2018-12-20T04:29:24.175Z,99.77
2018-12-20T04:30:24.258Z,99.06
2018-12-20T04:31:24.219Z,98.68
2018-12-20T04:32:24.091Z,98.92
2018-12-20T04:33:24.395Z,99.06
2018-12-20T04:34:24.153Z,98.97
2018-12-20T04:35:24.339Z,99.01
2018-12-20T04:36:24.252Z,99.06
2018-12-20T04:37:24.110Z,99.16
2018-12-20T04:38:24.079Z,99.16
2018-12-20T04:39:24.049Z,98.59
2018-12-20T04:40:24.150Z,98.87
2018-12-20T04:41:24.263Z,98.54
2018-12-20T04:42:24.395Z,99.01
2018-12-20T04:43:24.042Z,99.01
2018-12-20T04:44:23.981Z,99.11
2018-12-20T04:45:23.983Z,98.92
2018-12-20T04:46:24.210Z,98.82
2018-12-20T04:47:24.134Z,99.3
2018-12-20T04:48:24.065Z,98.92
2018-12-20T04:49:23.940Z,98.82
2018-12-20T04:50:24.047Z,98.87
2018-12-20T04:51:23.856Z,98.68
2018-12-20T04:52:23.925Z,99.35
2018-12-20T04:53:23.905Z,99.16
2018-12-20T04:54:23.992Z,99.16
2018-12-20T04:55:23.811Z,98.68
2018-12-20T04:56:23.764Z,99.3
2018-12-20T04:57:23.837Z,99.3
2018-12-20T04:58:23.783Z,99.68
2018-12-20T04:59:23.926Z,99.11
2018-12-20T05:00:23.947Z,98.92
2018-12-20T05:01:24.009Z,98.82
2018-12-20T05:02:23.854Z,99.39
2018-12-20T05:03:23.915Z,99.39
2018-12-20T05:04:23.653Z,99.35
2018-12-20T05:05:23.688Z,98.87
2018-12-20T05:06:23.656Z,98.82
2018-12-20T05:07:23.834Z,98.92
2018-12-20T05:08:23.726Z,98.82
2018-12-20T05:09:23.779Z,98.82
2018-12-20T05:10:23.611Z,98.82
2018-12-20T05:11:23.907Z,99.49
2018-12-20T05:12:23.653Z,99.39
2018-12-20T05:13:23.662Z,99.3
2018-12-20T05:14:23.525Z,99.49
2018-12-20T05:15:23.841Z,99.11
2018-12-20T05:16:23.501Z,99.01
2018-12-20T05:17:23.476Z,99.3
2018-12-20T05:18:23.468Z,99.01
2018-12-20T05:19:23.630Z,99.11
2018-12-20T05:20:23.688Z,99.11
2018-12-20T05:21:23.740Z,98.92
2018-12-20T05:22:23.668Z,98.87
2018-12-20T05:23:23.500Z,99.11
2018-12-20T05:24:23.493Z,98.92
2018-12-20T05:25:23.413Z,99.35
2018-12-20T05:26:23.541Z,99.16
2018-12-20T05:27:23.542Z,98.92
2018-12-20T05:28:23.527Z,99.11
2018-12-20T05:29:23.489Z,99.11
2018-12-20T05:30:23.529Z,99.11
2018-12-20T05:31:23.296Z,99.16
2018-12-20T05:32:23.275Z,99.06
2018-12-20T05:33:23.260Z,99.3
2018-12-20T05:34:23.484Z,98.92
2018-12-20T05:35:23.428Z,98.54
2018-12-20T05:36:24.370Z,98.92
2018-12-20T05:37:23.206Z,99.11
2018-12-20T05:38:23.300Z,98.49
2018-12-20T05:39:23.178Z,98.92
2018-12-20T05:40:23.228Z,99.01
2018-12-20T05:41:23.156Z,98.63
2018-12-20T05:42:23.139Z,99.11
2018-12-20T05:43:23.122Z,98.63
2018-12-20T05:44:23.272Z,98.63
2018-12-20T05:45:23.397Z,98.54
2018-12-20T05:46:23.251Z,98.68
2018-12-20T05:47:23.068Z,99.11
2018-12-20T05:48:23.266Z,98.92
2018-12-20T05:49:23.040Z,98.97
2018-12-20T05:50:23.279Z,98.73
2018-12-20T05:51:23.074Z,98.68
2018-12-20T05:52:23.226Z,99.16
2018-12-20T05:53:23.180Z,99.06
2018-12-20T05:54:23.424Z,98.4
2018-12-20T05:55:22.961Z,98.21
2018-12-20T05:56:23.164Z,98.11
2018-12-20T05:57:22.933Z,98.4
2018-12-20T05:58:23.072Z,98.92
2018-12-20T05:59:23.151Z,99.06
2018-12-20T06:00:22.963Z,98.49
2018-12-20T06:01:22.894Z,98.44
2018-12-20T06:02:23.053Z,98.25
2018-12-20T06:03:23.099Z,98.35
2018-12-20T06:04:22.943Z,98.97
2018-12-20T06:05:23.105Z,99.11
2018-12-20T06:06:22.837Z,98.63
2018-12-20T06:07:22.795Z,98.73
2018-12-20T06:08:22.969Z,98.82
2018-12-20T06:09:22.995Z,98.92
2018-12-20T06:10:22.817Z,99.11
2018-12-20T06:11:22.745Z,98.92
2018-12-20T06:12:22.861Z,98.73
2018-12-20T06:13:22.899Z,98.63
2018-12-20T06:14:23.282Z,98.82
2018-12-20T06:15:22.684Z,98.63
2018-12-20T06:16:23.204Z,99.11
2018-12-20T06:17:22.873Z,98.54
2018-12-20T06:18:22.885Z,98.92
2018-12-20T06:19:22.971Z,98.63
2018-12-20T06:20:22.651Z,98.63
2018-12-20T06:21:22.845Z,98.92
2018-12-20T06:22:22.714Z,98.73
2018-12-20T06:23:22.582Z,98.73
2018-12-20T06:24:22.563Z,98.63
2018-12-20T06:25:23.838Z,98.63
2018-12-20T06:26:22.534Z,98.63
2018-12-20T06:27:22.520Z,98.82
2018-12-20T06:28:22.509Z,98.63
2018-12-20T06:29:22.500Z,98.82
2018-12-20T06:30:22.485Z,98.63
2018-12-20T06:31:22.466Z,98.82
2018-12-20T06:32:22.454Z,98.82
2018-12-20T06:33:22.446Z,98.63
2018-12-20T06:34:22.532Z,98.63
2018-12-20T06:35:22.416Z,98.92
2018-12-20T06:36:22.654Z,99.01
2018-12-20T06:37:22.390Z,98.73
2018-12-20T06:38:22.372Z,98.73
2018-12-20T06:39:22.358Z,98.92
2018-12-20T06:40:22.343Z,98.44
2018-12-20T06:41:22.332Z,98.25
2018-12-20T06:42:22.317Z,98.44
2018-12-20T06:43:22.402Z,98.44
2018-12-20T06:44:22.289Z,99.01
2018-12-20T06:45:22.275Z,98.73
2018-12-20T06:46:23.899Z,98.82
2018-12-20T06:47:22.255Z,98.92
2018-12-20T06:48:22.237Z,98.73
2018-12-20T06:49:22.223Z,98.73
2018-12-20T06:50:22.222Z,98.63
2018-12-20T06:51:22.195Z,98.63
2018-12-20T06:52:22.181Z,98.82
2018-12-20T06:53:21.926Z,98.63
2018-12-20T06:54:22.155Z,99.11
2018-12-20T06:55:22.139Z,99.11
2018-12-20T06:56:22.124Z,99.11
2018-12-20T06:57:22.113Z,99.11
2018-12-20T06:58:22.103Z,98.63
2018-12-20T06:59:22.084Z,98.92
2018-12-20T07:00:22.074Z,98.73
2018-12-20T07:01:22.057Z,98.63
2018-12-20T07:02:22.041Z,98.82
2018-12-20T07:03:22.033Z,98.92
2018-12-20T07:04:22.014Z,98.92
2018-12-20T07:05:22.002Z,98.97
2018-12-20T07:06:21.989Z,99.01
2018-12-20T07:07:22.224Z,98.92
2018-12-20T07:08:21.960Z,98.63
2018-12-20T07:09:21.947Z,98.73
2018-12-20T07:10:21.934Z,98.44
2018-12-20T07:11:21.996Z,98.82
2018-12-20T07:12:21.907Z,98.68
2018-12-20T07:13:21.892Z,98.87
2018-12-20T07:14:21.877Z,98.92
2018-12-20T07:15:21.865Z,98.16
2018-12-20T07:16:29.082Z,98.07
2018-12-20T07:17:21.838Z,98.25
2018-12-20T07:18:21.823Z,98.07
2018-12-20T07:19:21.813Z,98.44
2018-12-20T07:20:21.798Z,98.07
2018-12-20T07:21:21.795Z,98.16
2018-12-20T07:22:23.917Z,98.44
2018-12-20T07:23:21.759Z,99.01
2018-12-20T07:24:21.754Z,98.92
2018-12-20T07:25:21.731Z,98.92
2018-12-20T07:26:21.717Z,99.11
2018-12-20T07:27:21.709Z,99.01
2018-12-20T07:28:21.693Z,99.11
2018-12-20T07:29:21.676Z,99.11
2018-12-20T07:30:21.668Z,98.35
2018-12-20T07:31:21.648Z,98.92
2018-12-20T07:32:27.660Z,99.01
2018-12-20T07:33:21.622Z,99.01
2018-12-20T07:34:21.608Z,98.63
2018-12-20T07:35:21.597Z,98.92
2018-12-20T07:36:21.591Z,99.01
2018-12-20T07:37:21.586Z,99.01
2018-12-20T07:38:21.803Z,99.01
2018-12-20T07:39:21.545Z,98.92
2018-12-20T07:40:21.526Z,98.63
2018-12-20T07:41:21.514Z,98.73
2018-12-20T07:42:21.500Z,98.73
2018-12-20T07:43:21.486Z,98.92
2018-12-20T07:44:21.469Z,98.92
2018-12-20T07:45:21.457Z,99.11
2018-12-20T07:46:21.445Z,99.11
2018-12-20T07:47:21.435Z,99.01
2018-12-20T07:48:21.413Z,98.92
2018-12-20T07:49:21.403Z,98.82
2018-12-20T07:50:21.396Z,99.01
2018-12-20T07:51:21.379Z,98.92
2018-12-20T07:52:21.363Z,99.11
2018-12-20T07:53:21.346Z,98.82
2018-12-20T07:54:21.331Z,98.82
2018-12-20T07:55:21.320Z,98.92
2018-12-20T07:56:21.308Z,98.92
2018-12-20T07:57:21.300Z,99.68
2018-12-20T07:58:21.036Z,99.39
2018-12-20T07:59:25.967Z,99.2
2018-12-20T08:00:21.253Z,99.58
2018-12-20T08:01:21.238Z,99.58
2018-12-20T08:02:21.224Z,99.2
2018-12-20T08:03:21.209Z,99.3
2018-12-20T08:04:21.206Z,98.63
2018-12-20T08:05:21.184Z,98.82
2018-12-20T08:06:21.168Z,98.82
2018-12-20T08:07:21.241Z,98.82
2018-12-20T08:08:21.142Z,99.01
2018-12-20T08:09:21.381Z,98.44
2018-12-20T08:10:21.117Z,98.92
2018-12-20T08:11:21.102Z,99.01
2018-12-20T08:12:21.090Z,98.92
2018-12-20T08:13:21.076Z,98.92
2018-12-20T08:14:21.060Z,98.82
2018-12-20T08:15:21.045Z,99.68
2018-12-20T08:16:21.034Z,99.58
2018-12-20T08:17:21.019Z,98.82
2018-12-20T08:18:21.006Z,99.11
2018-12-20T08:19:20.995Z,98.82
2018-12-20T08:20:20.978Z,99.2
2018-12-20T08:21:20.964Z,98.92
2018-12-20T08:22:20.952Z,99.01
2018-12-20T08:23:20.937Z,98.92
2018-12-20T08:24:20.926Z,99.01
2018-12-20T08:25:20.910Z,98.82
2018-12-20T08:26:20.897Z,98.92
2018-12-20T08:27:20.882Z,98.92
2018-12-20T08:28:20.873Z,98.92
2018-12-20T08:29:20.854Z,99.01
2018-12-20T08:30:20.845Z,99.3
2018-12-20T08:31:20.828Z,98.63
2018-12-20T08:32:20.817Z,98.82
2018-12-20T08:33:20.804Z,98.73
2018-12-20T08:34:20.789Z,98.54
2018-12-20T08:35:20.775Z,98.63
2018-12-20T08:36:20.760Z,98.63
2018-12-20T08:37:20.749Z,98.73
2018-12-20T08:38:20.737Z,99.11
2018-12-20T08:39:20.754Z,99.11
2018-12-20T08:40:20.710Z,98.44
2018-12-20T08:41:20.696Z,99.11
2018-12-20T08:42:20.682Z,98.92
2018-12-20T08:43:20.669Z,98.63
2018-12-20T08:44:20.658Z,98.92
2018-12-20T08:45:20.642Z,98.92
2018-12-20T08:46:20.631Z,98.73
2018-12-20T08:47:20.614Z,99.11
2018-12-20T08:48:20.605Z,98.44
2018-12-20T08:49:20.590Z,98.11
2018-12-20T08:50:20.575Z,98.35
2018-12-20T08:51:20.565Z,98.16
2018-12-20T08:52:20.553Z,98.35
2018-12-20T08:53:20.535Z,98.35
2018-12-20T08:54:20.523Z,98.54
2018-12-20T08:55:20.507Z,98.21
2018-12-20T08:56:20.499Z,98.25
2018-12-20T08:57:20.482Z,98.49
2018-12-20T08:58:20.472Z,98.21
2018-12-20T08:59:20.454Z,98.16
2018-12-20T09:00:20.443Z,98.21
2018-12-20T09:01:20.430Z,98.4
2018-12-20T09:02:20.415Z,98.02
2018-12-20T09:03:20.403Z,98.21
2018-12-20T09:04:20.386Z,98.02
2018-12-20T09:05:20.373Z,97.92
2018-12-20T09:06:20.372Z,98.3
2018-12-20T09:07:20.350Z,98.3
2018-12-20T09:08:20.335Z,98.11
2018-12-20T09:09:20.338Z,98.49
2018-12-20T09:10:20.312Z,98.21
2018-12-20T09:11:20.295Z,98.49
2018-12-20T09:12:20.297Z,98.02
2018-12-20T09:13:20.276Z,98.11
2018-12-20T09:14:20.258Z,97.83
2018-12-20T09:15:20.243Z,97.74
2018-12-20T09:16:20.229Z,97.83
2018-12-20T09:17:20.218Z,97.83
2018-12-20T09:18:20.206Z,97.92
2018-12-20T09:19:20.193Z,98.11
2018-12-20T09:20:20.187Z,98.02
2018-12-20T09:21:20.165Z,97.64
2018-12-20T09:22:20.151Z,97.17
2018-12-20T09:23:20.138Z,96.97
2018-12-20T09:24:20.123Z,96.97
2018-12-20T09:25:20.112Z,97.07
2018-12-20T09:26:20.100Z,97.07
2018-12-20T09:27:20.088Z,97.36
2018-12-20T09:28:20.072Z,97.17
2018-12-20T09:29:20.061Z,97.17
2018-12-20T09:30:20.065Z,97.17
2018-12-20T09:31:20.036Z,97.07
2018-12-20T09:32:20.025Z,96.97
2018-12-20T09:33:20.010Z,96.88
2018-12-20T09:34:19.999Z,97.17
2018-12-20T09:35:19.986Z,96.59
2018-12-20T09:36:19.970Z,96.17
2018-12-20T09:37:19.956Z,96.74
2018-12-20T09:38:19.950Z,96.31
2018-12-20T09:39:19.932Z,96.5
2018-12-20T09:40:19.921Z,96.22
2018-12-20T09:41:19.907Z,96.41
2018-12-20T09:42:19.894Z,96.36
2018-12-20T09:43:19.890Z,96.45
2018-12-20T09:44:19.869Z,96.45
2018-12-20T09:45:19.857Z,96.08
2018-12-20T09:46:19.883Z,96.17
2018-12-20T09:47:19.837Z,96.17
2018-12-20T09:48:19.820Z,96.26
2018-12-20T09:49:19.809Z,96.26
2018-12-20T09:50:19.797Z,95.89
2018-12-20T09:51:19.783Z,95.79
2018-12-20T09:52:19.794Z,95.98
2018-12-20T09:53:19.766Z,95.98
2018-12-20T09:54:19.753Z,96.17
2018-12-20T09:55:19.734Z,95.89
2018-12-20T09:56:19.727Z,95.6
2018-12-20T09:57:19.706Z,95.22
2018-12-20T09:58:19.697Z,95.03
2018-12-20T09:59:19.792Z,94.84
2018-12-20T10:00:19.668Z,94.84
2018-12-20T10:01:19.657Z,95.03
2018-12-20T10:02:19.646Z,94.89
2018-12-20T10:03:19.632Z,94.89
2018-12-20T10:04:19.622Z,94.32
2018-12-20T10:05:19.612Z,94.51
2018-12-20T10:06:19.594Z,94.51
2018-12-20T10:07:19.582Z,94.6
2018-12-20T10:08:19.571Z,94.51
2018-12-20T10:09:19.558Z,94.51
2018-12-20T10:10:19.558Z,94.7
2018-12-20T10:11:19.535Z,94.32
2018-12-20T10:12:19.520Z,94.6
2018-12-20T10:13:19.540Z,94.13
2018-12-20T10:14:19.497Z,93.94
2018-12-20T10:15:19.485Z,94.6
2018-12-20T10:16:19.474Z,94.23
2018-12-20T10:17:22.467Z,93.84
2018-12-20T10:18:19.455Z,94.32
2018-12-20T10:19:19.436Z,94.23
2018-12-20T10:20:19.430Z,94.13
2018-12-20T10:21:19.415Z,94.32
2018-12-20T10:22:19.404Z,93.75
2018-12-20T10:23:19.392Z,94.13
2018-12-20T10:24:19.375Z,94.32
2018-12-20T10:25:19.367Z,94.42
2018-12-20T10:26:19.356Z,94.13
2018-12-20T10:27:19.343Z,93.94
2018-12-20T10:28:19.334Z,94.13
2018-12-20T10:29:19.319Z,94.03
2018-12-20T10:30:19.307Z,93.75
2018-12-20T10:31:19.300Z,93.84
2018-12-20T10:32:19.283Z,93.94
2018-12-20T10:33:20.227Z,93.75
2018-12-20T10:34:19.313Z,94.03
2018-12-20T10:35:19.247Z,93.65
2018-12-20T10:36:19.235Z,93.65
2018-12-20T10:37:19.223Z,93.65
2018-12-20T10:38:19.213Z,93.84
2018-12-20T10:39:19.200Z,93.46
2018-12-20T10:40:19.191Z,93.56
2018-12-20T10:41:19.298Z,93.46
2018-12-20T10:42:19.167Z,93.46
2018-12-20T10:43:19.157Z,93.65
2018-12-20T10:44:19.139Z,93.56
2018-12-20T10:45:19.377Z,94.23
2018-12-20T10:46:19.116Z,93.46
2018-12-20T10:47:19.105Z,93.65
2018-12-20T10:48:19.095Z,93.46
2018-12-20T10:49:19.082Z,93.46
2018-12-20T10:50:19.071Z,93.18
2018-12-20T10:51:19.058Z,93.56
2018-12-20T10:52:19.440Z,93.7
2018-12-20T10:53:19.039Z,93.65
2018-12-20T10:54:19.022Z,93.27
2018-12-20T10:55:19.013Z,93.65
2018-12-20T10:56:19.001Z,93.27
2018-12-20T10:57:18.987Z,93.46
2018-12-20T10:58:18.975Z,93.6
2018-12-20T10:59:18.964Z,93.79
2018-12-20T11:00:18.953Z,93.41
2018-12-20T11:01:18.942Z,93.04
2018-12-20T11:02:18.964Z,93.23
2018-12-20T11:03:18.921Z,93.23
2018-12-20T11:04:18.907Z,93.23
2018-12-20T11:05:18.895Z,93.13
2018-12-20T11:06:18.881Z,93.23
2018-12-20T11:07:18.874Z,93.23
2018-12-20T11:08:18.861Z,93.51
2018-12-20T11:09:20.446Z,93.79
2018-12-20T11:10:18.837Z,93.23
2018-12-20T11:11:18.831Z,93.51
2018-12-20T11:12:18.816Z,93.32
2018-12-20T11:13:18.801Z,93.32
2018-12-20T11:14:18.791Z,93.32
2018-12-20T11:15:18.781Z,93.23
2018-12-20T11:16:18.765Z,93.04
2018-12-20T11:17:18.754Z,93.41
2018-12-20T11:18:18.747Z,93.13
2018-12-20T11:19:18.735Z,92.94
2018-12-20T11:20:18.724Z,93.23
2018-12-20T11:21:18.707Z,92.94
2018-12-20T11:22:18.698Z,92.66
2018-12-20T11:23:18.688Z,93.04
2018-12-20T11:24:18.682Z,92.75
2018-12-20T11:25:18.665Z,93.04
2018-12-20T11:26:18.716Z,92.66
2018-12-20T11:27:18.641Z,92.94
2018-12-20T11:28:18.629Z,92.94
2018-12-20T11:29:18.634Z,92.94
2018-12-20T11:30:18.611Z,92.94
2018-12-20T11:31:18.597Z,93.04
2018-12-20T11:32:18.591Z,93.32
2018-12-20T11:33:18.573Z,93.41
2018-12-20T11:34:18.562Z,93.32
2018-12-20T11:35:18.556Z,93.04
2018-12-20T11:36:18.560Z,93.41
2018-12-20T11:37:18.530Z,92.75
2018-12-20T11:38:18.518Z,93.13
2018-12-20T11:39:18.507Z,93.23
2018-12-20T11:40:18.505Z,93.32
2018-12-20T11:41:18.491Z,92.56
2018-12-20T11:42:18.477Z,92.56
2018-12-20T11:43:18.466Z,93.04
2018-12-20T11:44:18.450Z,92.85
2018-12-20T11:45:18.438Z,93.32
2018-12-20T11:46:18.426Z,92.7
2018-12-20T11:47:18.417Z,93.13
2018-12-20T11:48:18.411Z,93.37
2018-12-20T11:49:18.396Z,92.61
2018-12-20T11:50:18.385Z,92.89
2018-12-20T11:51:18.378Z,93.08
2018-12-20T11:52:18.358Z,92.7
2018-12-20T11:53:18.347Z,92.03
2018-12-20T11:54:18.343Z,92.41
2018-12-20T11:55:18.331Z,92.22
2018-12-20T11:56:18.319Z,92.32
2018-12-20T11:57:18.305Z,92.22
2018-12-20T11:58:18.292Z,91.94
2018-12-20T11:59:18.292Z,91.94
2018-12-20T12:00:18.272Z,92.22
2018-12-20T12:01:18.261Z,92.32
2018-12-20T12:02:26.836Z,92.22
2018-12-20T12:03:18.237Z,92.13
2018-12-20T12:04:18.225Z,91.56
2018-12-20T12:05:18.222Z,92.32
2018-12-20T12:06:18.210Z,91.37
2018-12-20T12:07:18.193Z,91.51
2018-12-20T12:08:18.192Z,91.8
2018-12-20T12:09:18.172Z,91.99
2018-12-20T12:10:18.160Z,91.22
2018-12-20T12:11:18.152Z,91.89
2018-12-20T12:12:18.139Z,91.32
2018-12-20T12:13:18.237Z,91.13
2018-12-20T12:14:18.116Z,91.03
2018-12-20T12:15:18.104Z,91.13
2018-12-20T12:16:18.094Z,91.37
2018-12-20T12:17:18.086Z,91.85
2018-12-20T12:18:18.075Z,91.56
2018-12-20T12:19:18.061Z,92.41
2018-12-20T12:20:18.153Z,92.22
2018-12-20T12:21:18.041Z,92.22
2018-12-20T12:22:18.036Z,92.8
2018-12-20T12:23:18.020Z,92.8
2018-12-20T12:24:18.011Z,93.08
2018-12-20T12:25:18.004Z,93.08
2018-12-20T12:26:17.986Z,93.27
2018-12-20T12:27:18.021Z,92.61
2018-12-20T12:28:17.963Z,93.18
2018-12-20T12:29:17.951Z,93.32
2018-12-20T12:30:17.942Z,93.51
2018-12-20T12:31:17.933Z,93.23
2018-12-20T12:32:17.921Z,93.13
2018-12-20T12:33:17.908Z,93.41
2018-12-20T12:34:17.900Z,93.7
2018-12-20T12:35:17.970Z,93.7
2018-12-20T12:36:17.878Z,93.79
2018-12-20T12:37:17.866Z,93.89
2018-12-20T12:38:17.854Z,93.89
2018-12-20T12:39:17.842Z,93.7
2018-12-20T12:40:17.832Z,93.7
2018-12-20T12:41:17.821Z,94.08
2018-12-20T12:42:17.806Z,94.56
2018-12-20T12:43:17.796Z,94.37
2018-12-20T12:44:17.785Z,93.99
2018-12-20T12:45:17.773Z,93.99
2018-12-20T12:46:17.761Z,94.56
2018-12-20T12:47:17.749Z,94.74
2018-12-20T12:48:17.743Z,95.03
2018-12-20T12:49:17.735Z,94.84
2018-12-20T12:50:17.714Z,94.93
2018-12-20T12:51:17.707Z,94.93
2018-12-20T12:52:17.695Z,94.74
2018-12-20T12:53:17.688Z,94.93
2018-12-20T12:54:17.673Z,94.74